sensor_id;sensor_type;location;lat;lon;timestamp;pressure;altitude;pressure_sealevel;temperature;humidity
26807;BME280;14380;49.910;6.792;2023-05-21T00:01:24;98708.53;;;14.75;100.00
26807;BME280;14380;49.910;6.792;2023-05-21T00:03:51;98709.28;;;14.77;100.00
26807;BME280;14380;49.910;6.792;2023-05-21T00:06:17;98704.41;;;14.71;100.00
26807;BME280;14380;49.910;6.792;2023-05-21T00:08:45;98704.09;;;14.63;100.00
26807;BME280;14380;49.910;6.792;2023-05-21T00:11:12;98701.06;;;14.80;100.00
26807;BME280;14380;49.910;6.792;2023-05-21T00:13:39;98702.16;;;14.65;100.00
26807;BME280;14380;49.910;6.792;2023-05-21T00:16:06;98697.56;;;14.80;100.00
26807;BME280;14380;49.910;6.792;2023-05-21T00:18:35;98690.16;;;14.72;100.00
26807;BME280;14380;49.910;6.792;2023-05-21T00:21:03;98690.06;;;14.61;100.00
26807;BME280;14380;49.910;6.792;2023-05-21T00:23:30;98683.41;;;14.55;100.00
26807;BME280;14380;49.910;6.792;2023-05-21T00:25:57;98684.13;;;14.57;100.00
26807;BME280;14380;49.910;6.792;2023-05-21T00:28:25;98673.28;;;14.84;100.00
26807;BME280;14380;49.910;6.792;2023-05-21T00:30:52;98677.50;;;14.63;100.00
26807;BME280;14380;49.910;6.792;2023-05-21T00:33:18;98678.66;;;14.71;100.00
26807;BME280;14380;49.910;6.792;2023-05-21T00:35:46;98676.41;;;14.41;100.00
26807;BME280;14380;49.910;6.792;2023-05-21T00:38:12;98669.53;;;14.63;100.00
26807;BME280;14380;49.910;6.792;2023-05-21T00:40:39;98668.28;;;14.55;100.00
26807;BME280;14380;49.910;6.792;2023-05-21T00:43:06;98675.91;;;14.73;100.00
26807;BME280;14380;49.910;6.792;2023-05-21T00:45:36;98663.13;;;14.78;100.00
26807;BME280;14380;49.910;6.792;2023-05-21T00:48:03;98659.19;;;14.47;100.00
26807;BME280;14380;49.910;6.792;2023-05-21T00:50:30;98658.25;;;14.48;100.00
26807;BME280;14380;49.910;6.792;2023-05-21T00:52:57;98655.59;;;14.48;100.00
26807;BME280;14380;49.910;6.792;2023-05-21T00:55:24;98651.09;;;14.48;100.00
26807;BME280;14380;49.910;6.792;2023-05-21T00:57:50;98647.09;;;14.67;100.00
26807;BME280;14380;49.910;6.792;2023-05-21T01:00:18;98652.25;;;14.57;100.00
26807;BME280;14380;49.910;6.792;2023-05-21T01:02:46;98650.53;;;14.32;100.00
26807;BME280;14380;49.910;6.792;2023-05-21T01:05:13;98651.50;;;14.31;100.00
26807;BME280;14380;49.910;6.792;2023-05-21T01:07:40;98644.94;;;14.23;100.00
26807;BME280;14380;49.910;6.792;2023-05-21T01:10:09;98643.25;;;14.22;100.00
26807;BME280;14380;49.910;6.792;2023-05-21T01:12:37;98644.72;;;14.26;100.00
26807;BME280;14380;49.910;6.792;2023-05-21T01:15:05;98654.44;;;14.39;100.00
26807;BME280;14380;49.910;6.792;2023-05-21T01:17:32;98646.78;;;14.10;100.00
26807;BME280;14380;49.910;6.792;2023-05-21T01:20:01;98653.72;;;14.24;100.00
26807;BME280;14380;49.910;6.792;2023-05-21T01:22:34;98652.25;;;14.33;100.00
26807;BME280;14380;49.910;6.792;2023-05-21T01:25:05;98658.66;;;14.17;100.00
26807;BME280;14380;49.910;6.792;2023-05-21T01:27:32;98650.72;;;14.04;100.00
26807;BME280;14380;49.910;6.792;2023-05-21T01:29:58;98649.09;;;14.15;100.00
26807;BME280;14380;49.910;6.792;2023-05-21T01:32:29;98646.78;;;14.10;100.00
26807;BME280;14380;49.910;6.792;2023-05-21T01:34:59;98650.91;;;14.14;100.00
26807;BME280;14380;49.910;6.792;2023-05-21T01:37:51;98645.72;;;14.12;100.00
26807;BME280;14380;49.910;6.792;2023-05-21T01:40:24;98641.97;;;14.15;100.00
26807;BME280;14380;49.910;6.792;2023-05-21T01:42:54;98641.16;;;14.02;100.00
26807;BME280;14380;49.910;6.792;2023-05-21T01:45:22;98634.63;;;14.19;100.00
26807;BME280;14380;49.910;6.792;2023-05-21T01:47:50;98643.91;;;14.13;100.00
26807;BME280;14380;49.910;6.792;2023-05-21T01:50:19;98642.66;;;13.93;100.00
26807;BME280;14380;49.910;6.792;2023-05-21T01:52:51;98645.06;;;14.09;100.00
26807;BME280;14380;49.910;6.792;2023-05-21T01:55:18;98647.03;;;13.94;100.00
26807;BME280;14380;49.910;6.792;2023-05-21T01:57:50;98643.38;;;14.08;100.00
26807;BME280;14380;49.910;6.792;2023-05-21T02:00:18;98645.47;;;14.16;100.00
26807;BME280;14380;49.910;6.792;2023-05-21T02:02:45;98639.09;;;14.18;100.00
26807;BME280;14380;49.910;6.792;2023-05-21T02:05:11;98635.75;;;14.03;100.00
26807;BME280;14380;49.910;6.792;2023-05-21T02:07:38;98627.81;;;13.77;100.00
26807;BME280;14380;49.910;6.792;2023-05-21T02:10:06;98622.69;;;14.00;100.00
26807;BME280;14380;49.910;6.792;2023-05-21T02:12:32;98616.94;;;14.06;100.00
26807;BME280;14380;49.910;6.792;2023-05-21T02:15:00;98622.13;;;14.08;100.00
26807;BME280;14380;49.910;6.792;2023-05-21T02:17:28;98626.75;;;13.93;100.00
26807;BME280;14380;49.910;6.792;2023-05-21T02:19:58;98623.69;;;13.86;100.00
26807;BME280;14380;49.910;6.792;2023-05-21T02:22:31;98615.13;;;14.07;100.00
26807;BME280;14380;49.910;6.792;2023-05-21T02:24:58;98617.53;;;13.86;100.00
26807;BME280;14380;49.910;6.792;2023-05-21T02:27:24;98617.09;;;13.92;100.00
26807;BME280;14380;49.910;6.792;2023-05-21T02:29:53;98613.25;;;13.96;100.00
26807;BME280;14380;49.910;6.792;2023-05-21T02:32:21;98611.13;;;14.01;100.00
26807;BME280;14380;49.910;6.792;2023-05-21T02:34:47;98611.13;;;14.01;100.00
26807;BME280;14380;49.910;6.792;2023-05-21T02:37:14;98609.66;;;13.97;100.00
26807;BME280;14380;49.910;6.792;2023-05-21T02:39:41;98611.13;;;14.01;100.00
26807;BME280;14380;49.910;6.792;2023-05-21T02:42:08;98605.69;;;14.03;100.00
26807;BME280;14380;49.910;6.792;2023-05-21T02:44:34;98607.31;;;13.92;100.00
26807;BME280;14380;49.910;6.792;2023-05-21T02:47:01;98614.94;;;13.97;100.00
26807;BME280;14380;49.910;6.792;2023-05-21T02:49:28;98611.91;;;13.90;100.00
26807;BME280;14380;49.910;6.792;2023-05-21T02:51:55;98611.91;;;13.90;100.00
26807;BME280;14380;49.910;6.792;2023-05-21T02:54:21;98614.25;;;13.69;100.00
26807;BME280;14380;49.910;6.792;2023-05-21T02:56:48;98603.38;;;13.98;100.00
26807;BME280;14380;49.910;6.792;2023-05-21T02:59:14;98609.47;;;13.87;100.00
26807;BME280;14380;49.910;6.792;2023-05-21T03:01:41;98612.84;;;13.89;100.00
26807;BME280;14380;49.910;6.792;2023-05-21T03:04:09;98610.41;;;13.86;100.00
26807;BME280;14380;49.910;6.792;2023-05-21T03:06:37;98608.19;;;13.80;100.00
26807;BME280;14380;49.910;6.792;2023-05-21T03:09:03;98603.69;;;13.93;100.00
26807;BME280;14380;49.910;6.792;2023-05-21T03:11:30;98602.69;;;13.57;100.00
26807;BME280;14380;49.910;6.792;2023-05-21T03:13:57;98595.56;;;13.71;100.00
26807;BME280;14380;49.910;6.792;2023-05-21T03:16:23;98601.84;;;13.70;100.00
26807;BME280;14380;49.910;6.792;2023-05-21T03:18:50;98590.28;;;13.71;100.00
26807;BME280;14380;49.910;6.792;2023-05-21T03:21:16;98599.81;;;13.73;100.00
26807;BME280;14380;49.910;6.792;2023-05-21T03:23:48;98600.13;;;13.81;100.00
26807;BME280;14380;49.910;6.792;2023-05-21T03:26:15;98599.63;;;13.50;100.00
26807;BME280;14380;49.910;6.792;2023-05-21T03:28:42;98598.16;;;13.46;100.00
26807;BME280;14380;49.910;6.792;2023-05-21T03:31:08;98596.78;;;13.53;100.00
26807;BME280;14380;49.910;6.792;2023-05-21T03:33:35;98594.00;;;13.55;100.00
26807;BME280;14380;49.910;6.792;2023-05-21T03:36:01;98597.81;;;13.38;100.00
26807;BME280;14380;49.910;6.792;2023-05-21T03:38:28;98600.03;;;13.31;100.00
26807;BME280;14380;49.910;6.792;2023-05-21T03:40:56;98598.91;;;13.48;100.00
26807;BME280;14380;49.910;6.792;2023-05-21T03:43:22;98597.16;;;13.73;100.00
26807;BME280;14380;49.910;6.792;2023-05-21T03:45:49;98600.91;;;13.58;100.00
26807;BME280;14380;49.910;6.792;2023-05-21T03:48:15;98588.38;;;13.60;100.00
26807;BME280;14380;49.910;6.792;2023-05-21T03:50:43;98592.63;;;13.62;100.00
26807;BME280;14380;49.910;6.792;2023-05-21T03:53:09;98590.59;;;13.40;100.00
26807;BME280;14380;49.910;6.792;2023-05-21T03:55:36;98591.28;;;13.44;100.00
26807;BME280;14380;49.910;6.792;2023-05-21T03:58:04;98598.97;;;13.34;100.00
26807;BME280;14380;49.910;6.792;2023-05-21T04:00:31;98596.31;;;13.34;100.00
26807;BME280;14380;49.910;6.792;2023-05-21T04:02:58;98596.97;;;13.37;100.00
26807;BME280;14380;49.910;6.792;2023-05-21T04:05:25;98604.59;;;13.29;100.00
26807;BME280;14380;49.910;6.792;2023-05-21T04:07:51;98609.91;;;13.29;100.00
26807;BME280;14380;49.910;6.792;2023-05-21T04:10:18;98603.00;;;13.65;100.00
26807;BME280;14380;49.910;6.792;2023-05-21T04:12:44;98604.19;;;13.22;100.00
26807;BME280;14380;49.910;6.792;2023-05-21T04:15:14;98601.97;;;13.42;100.00
26807;BME280;14380;49.910;6.792;2023-05-21T04:17:43;98602.81;;;13.56;100.00
26807;BME280;14380;49.910;6.792;2023-05-21T04:20:11;98601.53;;;13.35;100.00
26807;BME280;14380;49.910;6.792;2023-05-21T04:22:37;98606.09;;;13.20;100.00
26807;BME280;14380;49.910;6.792;2023-05-21T04:25:04;98605.56;;;13.54;100.00
26807;BME280;14380;49.910;6.792;2023-05-21T04:27:31;98606.59;;;13.26;100.00
26807;BME280;14380;49.910;6.792;2023-05-21T04:29:58;98600.94;;;13.45;100.00
26807;BME280;14380;49.910;6.792;2023-05-21T04:32:26;98604.94;;;13.37;100.00
26807;BME280;14380;49.910;6.792;2023-05-21T04:34:55;98602.94;;;13.41;100.00
26807;BME280;14380;49.910;6.792;2023-05-21T04:37:21;98597.81;;;13.64;100.00
26807;BME280;14380;49.910;6.792;2023-05-21T04:39:48;98601.22;;;13.66;100.00
26807;BME280;14380;49.910;6.792;2023-05-21T04:42:15;98603.91;;;14.03;100.00
26807;BME280;14380;49.910;6.792;2023-05-21T04:44:43;98613.09;;;13.60;100.00
26807;BME280;14380;49.910;6.792;2023-05-21T04:47:10;98610.31;;;13.75;100.00
26807;BME280;14380;49.910;6.792;2023-05-21T04:49:40;98611.91;;;13.90;100.00
26807;BME280;14380;49.910;6.792;2023-05-21T04:52:06;98607.50;;;14.02;100.00
26807;BME280;14380;49.910;6.792;2023-05-21T04:54:33;98612.38;;;14.08;100.00
26807;BME280;14380;49.910;6.792;2023-05-21T04:57:00;98611.44;;;14.09;100.00
26807;BME280;14380;49.910;6.792;2023-05-21T04:59:27;98604.59;;;14.42;100.00
26807;BME280;14380;49.910;6.792;2023-05-21T05:01:53;98610.94;;;14.53;100.00
26807;BME280;14380;49.910;6.792;2023-05-21T05:04:20;98607.09;;;14.57;100.00
26807;BME280;14380;49.910;6.792;2023-05-21T05:06:48;98606.19;;;14.69;100.00
26807;BME280;14380;49.910;6.792;2023-05-21T05:09:14;98609.25;;;14.76;100.00
26807;BME280;14380;49.910;6.792;2023-05-21T05:11:41;98616.41;;;14.87;100.00
26807;BME280;14380;49.910;6.792;2023-05-21T05:14:07;98608.19;;;14.66;100.00
26807;BME280;14380;49.910;6.792;2023-05-21T05:16:34;98612.69;;;15.01;100.00
26807;BME280;14380;49.910;6.792;2023-05-21T05:19:00;98615.72;;;15.08;100.00
26807;BME280;14380;49.910;6.792;2023-05-21T05:21:27;98603.56;;;15.16;100.00
26807;BME280;14380;49.910;6.792;2023-05-21T05:23:55;98600.03;;;15.16;100.00
26807;BME280;14380;49.910;6.792;2023-05-21T05:26:25;98592.91;;;15.28;100.00
26807;BME280;14380;49.910;6.792;2023-05-21T05:28:52;98599.69;;;15.43;100.00
26807;BME280;14380;49.910;6.792;2023-05-21T05:31:18;98596.06;;;15.33;100.00
26807;BME280;14380;49.910;6.792;2023-05-21T05:33:45;98594.53;;;15.42;100.00
26807;BME280;14380;49.910;6.792;2023-05-21T05:36:11;98595.38;;;15.54;100.00
26807;BME280;14380;49.910;6.792;2023-05-21T05:38:38;98592.09;;;15.73;100.00
26807;BME280;14380;49.910;6.792;2023-05-21T05:41:06;98593.88;;;15.84;100.00
26807;BME280;14380;49.910;6.792;2023-05-21T05:43:32;98601.19;;;15.93;100.00
26807;BME280;14380;49.910;6.792;2023-05-21T05:45:59;98596.75;;;16.15;100.00
26807;BME280;14380;49.910;6.792;2023-05-21T05:48:25;98593.44;;;16.01;100.00
26807;BME280;14380;49.910;6.792;2023-05-21T05:50:52;98601.16;;;16.04;100.00
26807;BME280;14380;49.910;6.792;2023-05-21T05:53:19;98600.78;;;16.20;100.00
26807;BME280;14380;49.910;6.792;2023-05-21T05:55:45;98603.25;;;16.45;100.00
26807;BME280;14380;49.910;6.792;2023-05-21T05:58:13;98608.63;;;16.22;100.00
26807;BME280;14380;49.910;6.792;2023-05-21T06:00:40;98604.75;;;16.26;100.00
26807;BME280;14380;49.910;6.792;2023-05-21T06:03:06;98605.47;;;16.17;100.00
26807;BME280;14380;49.910;6.792;2023-05-21T06:05:33;98611.84;;;16.37;100.00
26807;BME280;14380;49.910;6.792;2023-05-21T06:07:59;98599.53;;;16.57;100.00
26807;BME280;14380;49.910;6.792;2023-05-21T06:10:26;98592.91;;;16.84;100.00
26807;BME280;14380;49.910;6.792;2023-05-21T06:12:52;98597.31;;;16.95;100.00
26807;BME280;14380;49.910;6.792;2023-05-21T06:15:21;98597.03;;;17.09;100.00
26807;BME280;14380;49.910;6.792;2023-05-21T06:17:47;98606.31;;;17.15;100.00
26807;BME280;14380;49.910;6.792;2023-05-21T06:20:14;98601.50;;;17.30;100.00
26807;BME280;14380;49.910;6.792;2023-05-21T06:22:41;98599.28;;;17.35;100.00
26807;BME280;14380;49.910;6.792;2023-05-21T06:25:08;98605.25;;;17.49;100.00
26807;BME280;14380;49.910;6.792;2023-05-21T06:27:36;98600.38;;;17.54;100.00
26807;BME280;14380;49.910;6.792;2023-05-21T06:30:03;98594.81;;;17.77;100.00
26807;BME280;14380;49.910;6.792;2023-05-21T06:32:31;98596.94;;;17.42;100.00
26807;BME280;14380;49.910;6.792;2023-05-21T06:34:57;98600.47;;;17.52;100.00
26807;BME280;14380;49.910;6.792;2023-05-21T06:37:24;98595.78;;;17.66;100.00
26807;BME280;14380;49.910;6.792;2023-05-21T06:39:51;98597.25;;;17.49;100.00
26807;BME280;14380;49.910;6.792;2023-05-21T06:42:17;98598.72;;;17.63;100.00
26807;BME280;14380;49.910;6.792;2023-05-21T06:44:44;98598.44;;;17.66;100.00
26807;BME280;14380;49.910;6.792;2023-05-21T06:47:10;98605.66;;;17.23;100.00
26807;BME280;14380;49.910;6.792;2023-05-21T06:49:38;98601.22;;;17.33;100.00
26807;BME280;14380;49.910;6.792;2023-05-21T06:52:05;98610.88;;;17.03;100.00
26807;BME280;14380;49.910;6.792;2023-05-21T06:54:32;98591.72;;;17.41;100.00
26807;BME280;14380;49.910;6.792;2023-05-21T06:56:58;98603.97;;;17.74;100.00
26807;BME280;14380;49.910;6.792;2023-05-21T06:59:25;98600.91;;;17.48;100.00
26807;BME280;14380;49.910;6.792;2023-05-21T07:01:52;98610.28;;;17.42;100.00
26807;BME280;14380;49.910;6.792;2023-05-21T07:04:18;98607.78;;;17.50;100.00
26807;BME280;14380;49.910;6.792;2023-05-21T07:06:46;98605.47;;;17.36;100.00
26807;BME280;14380;49.910;6.792;2023-05-21T07:09:13;98610.31;;;17.83;100.00
26807;BME280;14380;49.910;6.792;2023-05-21T07:11:39;98611.88;;;17.54;100.00
26807;BME280;14380;49.910;6.792;2023-05-21T07:14:08;98609.16;;;17.45;100.00
26807;BME280;14380;49.910;6.792;2023-05-21T07:16:34;98610.97;;;17.65;100.00
26807;BME280;14380;49.910;6.792;2023-05-21T07:19:01;98615.69;;;17.93;100.00
26807;BME280;14380;49.910;6.792;2023-05-21T07:21:27;98617.19;;;18.17;100.00
26807;BME280;14380;49.910;6.792;2023-05-21T07:23:55;98618.19;;;18.25;100.00
26807;BME280;14380;49.910;6.792;2023-05-21T07:26:22;98617.81;;;18.89;100.00
26807;BME280;14380;49.910;6.792;2023-05-21T07:28:48;98625.00;;;18.49;100.00
26807;BME280;14380;49.910;6.792;2023-05-21T07:31:15;98618.78;;;18.39;100.00
26807;BME280;14380;49.910;6.792;2023-05-21T07:33:41;98621.00;;;17.83;100.00
26807;BME280;14380;49.910;6.792;2023-05-21T07:36:08;98614.97;;;18.22;100.00
26807;BME280;14380;49.910;6.792;2023-05-21T07:38:34;98615.72;;;18.53;100.00
26807;BME280;14380;49.910;6.792;2023-05-21T07:41:02;98601.19;;;18.95;100.00
26807;BME280;14380;49.910;6.792;2023-05-21T07:43:30;98602.06;;;19.06;100.00
26807;BME280;14380;49.910;6.792;2023-05-21T07:45:56;98602.41;;;19.40;100.00
26807;BME280;14380;49.910;6.792;2023-05-21T07:48:23;98600.47;;;20.08;97.47
26807;BME280;14380;49.910;6.792;2023-05-21T07:50:49;98605.03;;;20.62;98.74
26807;BME280;14380;49.910;6.792;2023-05-21T07:53:16;98599.22;;;20.30;95.69
26807;BME280;14380;49.910;6.792;2023-05-21T07:55:43;98596.09;;;20.07;92.77
26807;BME280;14380;49.910;6.792;2023-05-21T07:58:14;98599.47;;;19.71;96.56
26807;BME280;14380;49.910;6.792;2023-05-21T08:00:44;98601.13;;;20.38;96.73
26807;BME280;14380;49.910;6.792;2023-05-21T08:03:12;98601.22;;;20.18;95.05
26807;BME280;14380;49.910;6.792;2023-05-21T08:05:40;98599.41;;;19.91;96.65
26807;BME280;14380;49.910;6.792;2023-05-21T08:08:07;98601.88;;;20.30;91.62
26807;BME280;14380;49.910;6.792;2023-05-21T08:10:33;98598.53;;;20.00;94.75
26807;BME280;14380;49.910;6.792;2023-05-21T08:13:01;98605.56;;;20.01;94.25
26807;BME280;14380;49.910;6.792;2023-05-21T08:15:29;98599.13;;;20.22;93.13
26807;BME280;14380;49.910;6.792;2023-05-21T08:17:56;98597.84;;;20.16;94.98
26807;BME280;14380;49.910;6.792;2023-05-21T08:20:22;98596.69;;;20.01;95.90
26807;BME280;14380;49.910;6.792;2023-05-21T08:22:49;98594.84;;;20.01;96.06
26807;BME280;14380;49.910;6.792;2023-05-21T08:25:15;98588.81;;;20.17;95.10
26807;BME280;14380;49.910;6.792;2023-05-21T08:27:42;98594.47;;;19.86;96.94
26807;BME280;14380;49.910;6.792;2023-05-21T08:30:08;98591.91;;;20.41;93.94
26807;BME280;14380;49.910;6.792;2023-05-21T08:32:37;98585.75;;;20.12;96.08
26807;BME280;14380;49.910;6.792;2023-05-21T08:35:05;98593.06;;;20.74;95.58
26807;BME280;14380;49.910;6.792;2023-05-21T08:37:32;98589.69;;;20.72;95.41
26807;BME280;14380;49.910;6.792;2023-05-21T08:39:59;98584.13;;;20.65;94.89
26807;BME280;14380;49.910;6.792;2023-05-21T08:42:31;98581.31;;;21.12;94.56
26807;BME280;14380;49.910;6.792;2023-05-21T08:45:00;98579.75;;;21.27;91.85
26807;BME280;14380;49.910;6.792;2023-05-21T08:47:31;98582.78;;;21.59;92.41
26807;BME280;14380;49.910;6.792;2023-05-21T08:50:02;98578.69;;;21.46;91.95
26807;BME280;14380;49.910;6.792;2023-05-21T08:52:29;98568.25;;;21.69;89.41
26807;BME280;14380;49.910;6.792;2023-05-21T08:54:55;98576.06;;;21.28;91.63
26807;BME280;14380;49.910;6.792;2023-05-21T08:57:24;98570.66;;;21.81;88.18
26807;BME280;14380;49.910;6.792;2023-05-21T08:59:52;98570.06;;;21.69;88.66
26807;BME280;14380;49.910;6.792;2023-05-21T09:02:18;98564.28;;;21.82;87.56
26807;BME280;14380;49.910;6.792;2023-05-21T09:04:45;98567.78;;;21.82;88.56
26807;BME280;14380;49.910;6.792;2023-05-21T09:07:14;98558.75;;;21.57;88.39
26807;BME280;14380;49.910;6.792;2023-05-21T09:09:47;98553.25;;;22.10;88.51
26807;BME280;14380;49.910;6.792;2023-05-21T09:12:14;98560.16;;;22.21;90.52
26807;BME280;14380;49.910;6.792;2023-05-21T09:14:41;98547.19;;;21.99;88.54
26807;BME280;14380;49.910;6.792;2023-05-21T09:17:12;98548.69;;;21.94;87.06
26807;BME280;14380;49.910;6.792;2023-05-21T09:20:09;98553.28;;;22.18;89.01
26807;BME280;14380;49.910;6.792;2023-05-21T09:22:40;98547.47;;;22.56;86.55
26807;BME280;14380;49.910;6.792;2023-05-21T09:25:08;98540.06;;;22.58;85.97
26807;BME280;14380;49.910;6.792;2023-05-21T09:27:35;98539.56;;;22.46;89.20
26807;BME280;14380;49.910;6.792;2023-05-21T09:30:03;98539.72;;;22.61;86.03
26807;BME280;14380;49.910;6.792;2023-05-21T09:32:30;98538.88;;;23.10;89.66
26807;BME280;14380;49.910;6.792;2023-05-21T09:35:05;98541.91;;;22.91;88.98
26807;BME280;14380;49.910;6.792;2023-05-21T09:37:37;98537.03;;;23.67;83.75
26807;BME280;14380;49.910;6.792;2023-05-21T09:40:12;98538.81;;;23.43;84.74
26807;BME280;14380;49.910;6.792;2023-05-21T09:42:40;98538.88;;;22.77;83.58
26807;BME280;14380;49.910;6.792;2023-05-21T09:45:08;98546.28;;;22.92;87.02
26807;BME280;14380;49.910;6.792;2023-05-21T09:47:39;98534.66;;;23.24;86.54
26807;BME280;14380;49.910;6.792;2023-05-21T09:50:07;98537.50;;;23.31;85.12
26807;BME280;14380;49.910;6.792;2023-05-21T09:52:35;98534.44;;;23.34;83.20
26807;BME280;14380;49.910;6.792;2023-05-21T09:55:02;98530.59;;;23.37;84.98
26807;BME280;14380;49.910;6.792;2023-05-21T09:57:29;98536.44;;;23.49;84.84
26807;BME280;14380;49.910;6.792;2023-05-21T09:59:57;98531.31;;;22.89;83.26
26807;BME280;14380;49.910;6.792;2023-05-21T10:02:24;98522.72;;;23.67;83.68
26807;BME280;14380;49.910;6.792;2023-05-21T10:04:51;98522.34;;;23.30;83.96
26807;BME280;14380;49.910;6.792;2023-05-21T10:07:20;98527.91;;;23.37;84.46
26807;BME280;14380;49.910;6.792;2023-05-21T10:09:51;98526.03;;;23.21;84.42
26807;BME280;14380;49.910;6.792;2023-05-21T10:12:21;98521.34;;;23.71;83.55
26807;BME280;14380;49.910;6.792;2023-05-21T10:14:53;98521.47;;;24.17;84.71
26807;BME280;14380;49.910;6.792;2023-05-21T10:17:24;98517.38;;;23.98;79.63
26807;BME280;14380;49.910;6.792;2023-05-21T10:19:53;98519.91;;;23.60;80.51
26807;BME280;14380;49.910;6.792;2023-05-21T10:22:21;98517.91;;;24.17;82.95
26807;BME280;14380;49.910;6.792;2023-05-21T10:24:49;98517.66;;;23.72;84.02
26807;BME280;14380;49.910;6.792;2023-05-21T10:27:17;98517.09;;;23.76;80.88
26807;BME280;14380;49.910;6.792;2023-05-21T10:29:45;98517.00;;;23.61;83.30
26807;BME280;14380;49.910;6.792;2023-05-21T10:32:15;98510.06;;;24.30;79.26
26807;BME280;14380;49.910;6.792;2023-05-21T10:34:42;98513.69;;;24.23;80.07
26807;BME280;14380;49.910;6.792;2023-05-21T10:37:11;98503.59;;;24.63;80.72
26807;BME280;14380;49.910;6.792;2023-05-21T10:39:38;98506.91;;;24.50;78.97
26807;BME280;14380;49.910;6.792;2023-05-21T10:42:16;98497.75;;;24.74;78.96
26807;BME280;14380;49.910;6.792;2023-05-21T10:44:55;98490.94;;;25.32;78.97
26807;BME280;14380;49.910;6.792;2023-05-21T10:47:50;98490.53;;;25.05;76.99
26807;BME280;14380;49.910;6.792;2023-05-21T10:50:44;98498.81;;;24.88;77.03
26807;BME280;14380;49.910;6.792;2023-05-21T10:53:21;98491.63;;;24.95;78.24
26807;BME280;14380;49.910;6.792;2023-05-21T10:55:58;98482.50;;;24.97;79.41
26807;BME280;14380;49.910;6.792;2023-05-21T10:59:11;98489.06;;;25.02;78.01
26807;BME280;14380;49.910;6.792;2023-05-21T11:01:47;98497.69;;;24.98;79.15
26807;BME280;14380;49.910;6.792;2023-05-21T11:04:20;98482.53;;;25.27;77.43
26807;BME280;14380;49.910;6.792;2023-05-21T11:06:47;98495.28;;;25.03;77.42
26807;BME280;14380;49.910;6.792;2023-05-21T11:09:15;98494.75;;;25.07;76.78
26807;BME280;14380;49.910;6.792;2023-05-21T11:11:43;98490.53;;;24.90;75.57
26807;BME280;14380;49.910;6.792;2023-05-21T11:14:30;98487.56;;;25.30;79.38
26807;BME280;14380;49.910;6.792;2023-05-21T11:16:59;98483.75;;;24.71;75.56
26807;BME280;14380;49.910;6.792;2023-05-21T11:19:37;98487.38;;;25.16;74.63
26807;BME280;14380;49.910;6.792;2023-05-21T11:22:06;98476.50;;;25.09;75.72
26807;BME280;14380;49.910;6.792;2023-05-21T11:24:36;98485.25;;;25.12;75.68
26807;BME280;14380;49.910;6.792;2023-05-21T11:27:03;98483.66;;;25.17;75.43
26807;BME280;14380;49.910;6.792;2023-05-21T11:32:13;98479.56;;;25.21;78.64
26807;BME280;14380;49.910;6.792;2023-05-21T11:34:47;98468.00;;;25.43;82.95
26807;BME280;14380;49.910;6.792;2023-05-21T11:37:27;98472.75;;;25.56;75.65
26807;BME280;14380;49.910;6.792;2023-05-21T11:39:55;98476.41;;;25.48;74.87
26807;BME280;14380;49.910;6.792;2023-05-21T11:42:27;98481.31;;;24.99;74.48
26807;BME280;14380;49.910;6.792;2023-05-21T11:44:55;98484.97;;;24.91;77.16
26807;BME280;14380;49.910;6.792;2023-05-21T11:47:22;98479.94;;;24.88;78.69
26807;BME280;14380;49.910;6.792;2023-05-21T11:49:51;98475.09;;;25.29;74.68
26807;BME280;14380;49.910;6.792;2023-05-21T11:52:18;98470.81;;;25.19;74.99
26807;BME280;14380;49.910;6.792;2023-05-21T11:54:46;98481.50;;;24.98;74.53
26807;BME280;14380;49.910;6.792;2023-05-21T11:57:13;98479.72;;;25.05;74.97
26807;BME280;14380;49.910;6.792;2023-05-21T11:59:40;98480.84;;;24.95;74.38
26807;BME280;14380;49.910;6.792;2023-05-21T12:02:07;98480.16;;;24.78;75.53
26807;BME280;14380;49.910;6.792;2023-05-21T12:04:34;98487.44;;;24.55;74.89
26807;BME280;14380;49.910;6.792;2023-05-21T12:07:04;98485.94;;;24.75;76.77
26807;BME280;14380;49.910;6.792;2023-05-21T12:09:37;98487.47;;;24.08;75.59
26807;BME280;14380;49.910;6.792;2023-05-21T12:12:05;98483.72;;;24.56;76.44
26807;BME280;14380;49.910;6.792;2023-05-21T12:14:31;98492.56;;;24.73;75.65
26807;BME280;14380;49.910;6.792;2023-05-21T12:16:58;98482.50;;;24.58;76.49
26807;BME280;14380;49.910;6.792;2023-05-21T12:19:24;98482.09;;;24.70;78.34
26807;BME280;14380;49.910;6.792;2023-05-21T12:21:51;98477.03;;;25.05;75.43
26807;BME280;14380;49.910;6.792;2023-05-21T12:24:19;98476.03;;;25.36;76.73
26807;BME280;14380;49.910;6.792;2023-05-21T12:26:46;98479.38;;;25.38;75.82
26807;BME280;14380;49.910;6.792;2023-05-21T12:29:14;98480.28;;;25.30;73.92
26807;BME280;14380;49.910;6.792;2023-05-21T12:31:48;98481.69;;;25.11;72.82
26807;BME280;14380;49.910;6.792;2023-05-21T12:34:14;98481.22;;;25.37;75.04
26807;BME280;14380;49.910;6.792;2023-05-21T12:36:43;98478.41;;;25.76;74.94
26807;BME280;14380;49.910;6.792;2023-05-21T12:39:12;98479.06;;;24.88;74.42
26807;BME280;14380;49.910;6.792;2023-05-21T12:41:40;98474.53;;;25.33;73.85
26807;BME280;14380;49.910;6.792;2023-05-21T12:44:07;98478.81;;;25.43;75.78
26807;BME280;14380;49.910;6.792;2023-05-21T12:46:34;98475.75;;;25.16;74.25
26807;BME280;14380;49.910;6.792;2023-05-21T12:49:01;98471.00;;;25.33;75.97
26807;BME280;14380;49.910;6.792;2023-05-21T12:51:36;98473.69;;;25.33;73.46
26807;BME280;14380;49.910;6.792;2023-05-21T12:54:10;98475.06;;;24.84;72.31
26807;BME280;14380;49.910;6.792;2023-05-21T12:56:44;98480.13;;;25.17;71.25
26807;BME280;14380;49.910;6.792;2023-05-21T12:59:14;98485.63;;;25.08;71.06
26807;BME280;14380;49.910;6.792;2023-05-21T13:01:40;98479.09;;;24.64;69.66
26807;BME280;14380;49.910;6.792;2023-05-21T13:04:07;98485.09;;;24.75;70.64